This is the latest recevied weather packets stored in our database for station/object IW7DVM-13. If no packets are shown the sender has not sent any weather packets the latest 1 day(s).
| Time | Temp. | Humidity | Pressure | Rain* | Wind** | Luminosity | Snow |
|---|---|---|---|---|---|---|---|
| 1778030103 | 16.11° C | 73% | 1009.3 hPa | 0 mm | 1.34 m/s, 23° | - | - |
| 1778029803 | 16.11° C | 73% | 1009.3 hPa | 0 mm | 1.34 m/s, 24° | - | - |
| 1778029503 | 16.11° C | 73% | 1009.4 hPa | 0 mm | 0.45 m/s, 45° | - | - |
| 1778029203 | 16.11° C | 73% | 1009.4 hPa | 0 mm | 0.45 m/s, 46° | - | - |
| 1778028903 | 16.11° C | 73% | 1009.3 hPa | 0 mm | 1.34 m/s, 39° | - | - |
| 1778028603 | 16.11° C | 73% | 1009.3 hPa | 0 mm | 1.79 m/s, 29° | - | - |
| 1778028303 | 16.11° C | 73% | 1009.3 hPa | 0 mm | 1.34 m/s, 22° | - | - |
| 1778028003 | 16.11° C | 73% | 1009.3 hPa | 0 mm | 0.89 m/s, 22° | - | - |
| 1778027703 | 16.11° C | 73% | 1009.4 hPa | 0 mm | 0.45 m/s, 31° | - | - |
| 1778027403 | 16.11° C | 73% | 1009.4 hPa | 0 mm | 0.89 m/s, 45° | - | - |
| 1778027103 | 16.11° C | 73% | 1009.5 hPa | 0 mm | 0.45 m/s, 45° | - | - |
| 1778026803 | 16.11° C | 73% | 1009.5 hPa | 0 mm | 0.89 m/s, 35° | - | - |
| 1778026503 | 16.11° C | 73% | 1009.5 hPa | 0 mm | 0.89 m/s, 51° | - | - |
| 1778026203 | 16.11° C | 73% | 1009.5 hPa | 0 mm | 1.34 m/s, 48° | - | - |
| 1778025903 | 16.11° C | 73% | 1009.5 hPa | 0 mm | 1.34 m/s, 51° | - | - |
| 1778025603 | 16.11° C | 73% | 1009.5 hPa | 0 mm | 0.89 m/s, 58° | - | - |
| 1778025303 | 16.11° C | 73% | 1009.6 hPa | 0 mm | 1.34 m/s, 53° | - | - |
| 1778025003 | 16.11° C | 73% | 1009.6 hPa | 0 mm | 1.34 m/s, 58° | - | - |
| 1778024703 | 16.11° C | 73% | 1009.6 hPa | 0 mm | 0.89 m/s, 62° | - | - |
| 1778024403 | 16.11° C | 73% | 1009.7 hPa | 0 mm | 0.45 m/s, 55° | - | - |
| 1778024103 | 16.11° C | 73% | 1009.6 hPa | 0 mm | 0.45 m/s, 65° | - | - |
| 1778023803 | 16.11° C | 73% | 1009.6 hPa | 0 mm | 0.45 m/s, 74° | - | - |
| 1778023503 | 16.11° C | 73% | 1009.7 hPa | 0 mm | 0.89 m/s, 69° | - | - |
| 1778023203 | 16.11° C | 73% | 1009.7 hPa | 0 mm | 1.34 m/s, 56° | - | - |
| 1778022903 | 16.11° C | 73% | 1009.8 hPa | 0 mm | 1.79 m/s, 49° | - | - |
* Rain latest hour (hover to see other rain measurements)
** Current wind speed in m/s (hover to see current wind gust speed)